Terminal Aerodrome Forecast
Issued by NWS

Home | Current Version | Previous Version | Text Only | Print | Product List | Glossary On
Versions: 1 2 3 4 5 6 7 8 9 10 11 12 13 14
000
FTUS41 KPBZ 040529
TAFHLG
TAF
KHLG 040529Z 0406/0506 17005KT P6SM SCT250 WS010/22030KT
     FM041600 22013G20KT P6SM SCT050 BKN250
     FM050200 21006KT P6SM BKN080=

USA.gov is the U.S. government's official web portal to all federal, state and local government web resources and services.